sensor_id;sensor_type;location;lat;lon;timestamp;P1;durP1;ratioP1;P2;durP2;ratioP2
8891;SDS011;4482;54.332;10.118;2022-11-04T00:02:10;4.60;;;2.63;;
8891;SDS011;4482;54.332;10.118;2022-11-04T00:04:37;5.20;;;3.10;;
8891;SDS011;4482;54.332;10.118;2022-11-04T00:07:03;2.80;;;2.60;;
8891;SDS011;4482;54.332;10.118;2022-11-04T00:09:52;4.13;;;2.70;;
8891;SDS011;4482;54.332;10.118;2022-11-04T00:12:19;7.00;;;2.83;;
8891;SDS011;4482;54.332;10.118;2022-11-04T00:14:51;4.17;;;2.77;;
8891;SDS011;4482;54.332;10.118;2022-11-04T00:17:18;5.27;;;3.13;;
8891;SDS011;4482;54.332;10.118;2022-11-04T00:19:44;3.37;;;2.63;;
8891;SDS011;4482;54.332;10.118;2022-11-04T00:22:29;4.77;;;3.20;;
8891;SDS011;4482;54.332;10.118;2022-11-04T00:25:15;6.37;;;3.23;;
8891;SDS011;4482;54.332;10.118;2022-11-04T00:28:06;8.37;;;3.37;;
8891;SDS011;4482;54.332;10.118;2022-11-04T00:30:56;8.97;;;2.97;;
8891;SDS011;4482;54.332;10.118;2022-11-04T00:33:45;3.70;;;2.97;;
8891;SDS011;4482;54.332;10.118;2022-11-04T00:36:11;5.83;;;3.27;;
8891;SDS011;4482;54.332;10.118;2022-11-04T00:38:37;5.53;;;3.47;;
8891;SDS011;4482;54.332;10.118;2022-11-04T00:41:06;15.00;;;4.10;;
8891;SDS011;4482;54.332;10.118;2022-11-04T00:43:50;4.20;;;3.07;;
8891;SDS011;4482;54.332;10.118;2022-11-04T00:46:17;6.03;;;3.40;;
8891;SDS011;4482;54.332;10.118;2022-11-04T00:48:43;5.13;;;3.07;;
8891;SDS011;4482;54.332;10.118;2022-11-04T00:51:10;5.03;;;3.20;;
8891;SDS011;4482;54.332;10.118;2022-11-04T00:53:37;3.07;;;2.83;;
8891;SDS011;4482;54.332;10.118;2022-11-04T00:56:05;4.63;;;3.43;;
8891;SDS011;4482;54.332;10.118;2022-11-04T00:58:32;12.57;;;3.30;;
8891;SDS011;4482;54.332;10.118;2022-11-04T01:00:59;7.43;;;3.37;;
8891;SDS011;4482;54.332;10.118;2022-11-04T01:03:31;9.77;;;3.57;;
8891;SDS011;4482;54.332;10.118;2022-11-04T01:05:58;7.20;;;3.00;;
8891;SDS011;4482;54.332;10.118;2022-11-04T01:08:25;5.97;;;3.00;;
8891;SDS011;4482;54.332;10.118;2022-11-04T01:10:52;4.70;;;2.77;;
8891;SDS011;4482;54.332;10.118;2022-11-04T01:13:20;6.03;;;3.23;;
8891;SDS011;4482;54.332;10.118;2022-11-04T01:15:47;4.07;;;3.37;;
8891;SDS011;4482;54.332;10.118;2022-11-04T01:18:14;5.67;;;3.20;;
8891;SDS011;4482;54.332;10.118;2022-11-04T01:20:41;3.87;;;2.73;;
8891;SDS011;4482;54.332;10.118;2022-11-04T01:23:08;5.10;;;2.93;;
8891;SDS011;4482;54.332;10.118;2022-11-04T01:25:38;5.23;;;2.87;;
8891;SDS011;4482;54.332;10.118;2022-11-04T01:28:05;4.87;;;3.30;;
8891;SDS011;4482;54.332;10.118;2022-11-04T01:30:33;4.97;;;3.37;;
8891;SDS011;4482;54.332;10.118;2022-11-04T01:33:02;3.73;;;3.20;;
8891;SDS011;4482;54.332;10.118;2022-11-04T01:35:29;5.93;;;3.17;;
8891;SDS011;4482;54.332;10.118;2022-11-04T01:37:56;9.83;;;3.20;;
8891;SDS011;4482;54.332;10.118;2022-11-04T01:40:23;5.67;;;3.13;;
8891;SDS011;4482;54.332;10.118;2022-11-04T01:42:50;5.17;;;3.33;;
8891;SDS011;4482;54.332;10.118;2022-11-04T01:45:18;3.73;;;3.17;;
8891;SDS011;4482;54.332;10.118;2022-11-04T01:47:48;6.90;;;3.73;;
8891;SDS011;4482;54.332;10.118;2022-11-04T01:50:21;4.03;;;3.73;;
8891;SDS011;4482;54.332;10.118;2022-11-04T01:52:51;4.20;;;2.90;;
8891;SDS011;4482;54.332;10.118;2022-11-04T01:55:23;7.33;;;3.47;;
8891;SDS011;4482;54.332;10.118;2022-11-04T01:57:53;7.63;;;3.63;;
8891;SDS011;4482;54.332;10.118;2022-11-04T02:00:23;4.83;;;3.33;;
8891;SDS011;4482;54.332;10.118;2022-11-04T02:02:56;4.10;;;3.33;;
8891;SDS011;4482;54.332;10.118;2022-11-04T02:05:27;5.23;;;3.60;;
8891;SDS011;4482;54.332;10.118;2022-11-04T02:07:56;6.40;;;3.63;;
8891;SDS011;4482;54.332;10.118;2022-11-04T02:10:25;5.93;;;3.53;;
8891;SDS011;4482;54.332;10.118;2022-11-04T02:12:54;8.43;;;3.73;;
8891;SDS011;4482;54.332;10.118;2022-11-04T02:15:25;9.20;;;3.77;;
8891;SDS011;4482;54.332;10.118;2022-11-04T02:18:11;4.37;;;3.67;;
8891;SDS011;4482;54.332;10.118;2022-11-04T02:26:59;7.20;;;3.37;;
8891;SDS011;4482;54.332;10.118;2022-11-04T02:29:41;5.03;;;3.03;;
8891;SDS011;4482;54.332;10.118;2022-11-04T02:32:14;5.77;;;3.50;;
8891;SDS011;4482;54.332;10.118;2022-11-04T02:34:51;4.13;;;3.30;;
8891;SDS011;4482;54.332;10.118;2022-11-04T02:37:29;3.97;;;3.60;;
8891;SDS011;4482;54.332;10.118;2022-11-04T02:40:04;5.57;;;3.53;;
8891;SDS011;4482;54.332;10.118;2022-11-04T02:42:40;5.20;;;3.67;;
8891;SDS011;4482;54.332;10.118;2022-11-04T02:45:16;3.80;;;3.50;;
8891;SDS011;4482;54.332;10.118;2022-11-04T02:47:48;5.43;;;3.33;;
8891;SDS011;4482;54.332;10.118;2022-11-04T02:50:20;3.53;;;3.23;;
8891;SDS011;4482;54.332;10.118;2022-11-04T02:52:54;3.60;;;3.30;;
8891;SDS011;4482;54.332;10.118;2022-11-04T02:55:26;5.57;;;3.80;;
8891;SDS011;4482;54.332;10.118;2022-11-04T02:57:58;6.77;;;3.80;;
8891;SDS011;4482;54.332;10.118;2022-11-04T03:00:31;10.53;;;3.57;;
8891;SDS011;4482;54.332;10.118;2022-11-04T03:03:02;4.50;;;3.97;;
8891;SDS011;4482;54.332;10.118;2022-11-04T03:05:34;4.73;;;3.53;;
8891;SDS011;4482;54.332;10.118;2022-11-04T03:08:05;4.10;;;3.80;;
8891;SDS011;4482;54.332;10.118;2022-11-04T03:10:39;6.60;;;4.43;;
8891;SDS011;4482;54.332;10.118;2022-11-04T03:13:10;5.03;;;4.57;;
8891;SDS011;4482;54.332;10.118;2022-11-04T03:15:41;6.83;;;4.33;;
8891;SDS011;4482;54.332;10.118;2022-11-04T03:18:15;6.47;;;4.33;;
8891;SDS011;4482;54.332;10.118;2022-11-04T03:20:48;6.87;;;4.50;;
8891;SDS011;4482;54.332;10.118;2022-11-04T03:23:16;5.10;;;4.27;;
8891;SDS011;4482;54.332;10.118;2022-11-04T03:25:44;9.60;;;4.60;;
8891;SDS011;4482;54.332;10.118;2022-11-04T03:28:24;7.83;;;4.97;;
8891;SDS011;4482;54.332;10.118;2022-11-04T03:31:02;7.40;;;4.77;;
8891;SDS011;4482;54.332;10.118;2022-11-04T03:33:32;5.97;;;3.97;;
8891;SDS011;4482;54.332;10.118;2022-11-04T03:36:04;9.10;;;4.50;;
8891;SDS011;4482;54.332;10.118;2022-11-04T03:38:32;6.03;;;4.47;;
8891;SDS011;4482;54.332;10.118;2022-11-04T03:40:59;5.33;;;4.33;;
8891;SDS011;4482;54.332;10.118;2022-11-04T03:43:29;6.93;;;4.93;;
8891;SDS011;4482;54.332;10.118;2022-11-04T03:45:57;5.77;;;4.80;;
8891;SDS011;4482;54.332;10.118;2022-11-04T03:48:26;7.43;;;4.73;;
8891;SDS011;4482;54.332;10.118;2022-11-04T03:50:53;10.97;;;5.07;;
8891;SDS011;4482;54.332;10.118;2022-11-04T03:53:20;5.23;;;4.63;;
8891;SDS011;4482;54.332;10.118;2022-11-04T03:55:54;6.63;;;4.63;;
8891;SDS011;4482;54.332;10.118;2022-11-04T03:58:32;6.53;;;4.77;;
8891;SDS011;4482;54.332;10.118;2022-11-04T04:01:07;6.17;;;5.10;;
8891;SDS011;4482;54.332;10.118;2022-11-04T04:03:45;7.13;;;4.73;;
8891;SDS011;4482;54.332;10.118;2022-11-04T04:06:17;37.47;;;19.60;;
8891;SDS011;4482;54.332;10.118;2022-11-04T04:08:50;15.13;;;10.10;;
8891;SDS011;4482;54.332;10.118;2022-11-04T04:11:22;7.87;;;6.17;;
8891;SDS011;4482;54.332;10.118;2022-11-04T04:13:56;8.97;;;4.93;;
8891;SDS011;4482;54.332;10.118;2022-11-04T04:16:31;5.20;;;4.33;;
8891;SDS011;4482;54.332;10.118;2022-11-04T04:19:03;4.93;;;4.53;;
8891;SDS011;4482;54.332;10.118;2022-11-04T04:21:34;9.03;;;5.17;;
8891;SDS011;4482;54.332;10.118;2022-11-04T04:24:05;5.47;;;4.97;;
8891;SDS011;4482;54.332;10.118;2022-11-04T04:26:51;10.80;;;5.60;;
8891;SDS011;4482;54.332;10.118;2022-11-04T04:29:37;5.40;;;4.83;;
8891;SDS011;4482;54.332;10.118;2022-11-04T04:32:05;7.73;;;5.47;;
8891;SDS011;4482;54.332;10.118;2022-11-04T04:34:34;6.50;;;4.93;;
8891;SDS011;4482;54.332;10.118;2022-11-04T04:37:02;6.77;;;5.43;;
8891;SDS011;4482;54.332;10.118;2022-11-04T04:39:34;7.33;;;5.67;;
8891;SDS011;4482;54.332;10.118;2022-11-04T04:42:22;9.47;;;5.40;;
8891;SDS011;4482;54.332;10.118;2022-11-04T04:45:07;9.60;;;6.30;;
8891;SDS011;4482;54.332;10.118;2022-11-04T04:50:18;6.83;;;5.90;;
8891;SDS011;4482;54.332;10.118;2022-11-04T04:52:47;8.27;;;6.17;;
8891;SDS011;4482;54.332;10.118;2022-11-04T04:55:18;8.00;;;6.53;;
8891;SDS011;4482;54.332;10.118;2022-11-04T04:57:45;8.10;;;6.43;;
8891;SDS011;4482;54.332;10.118;2022-11-04T05:00:12;6.90;;;6.17;;
8891;SDS011;4482;54.332;10.118;2022-11-04T05:02:41;11.57;;;6.87;;
8891;SDS011;4482;54.332;10.118;2022-11-04T05:05:08;14.27;;;10.07;;
8891;SDS011;4482;54.332;10.118;2022-11-04T05:07:37;10.23;;;7.30;;
8891;SDS011;4482;54.332;10.118;2022-11-04T05:10:04;13.47;;;7.60;;
8891;SDS011;4482;54.332;10.118;2022-11-04T05:12:33;13.47;;;9.03;;
8891;SDS011;4482;54.332;10.118;2022-11-04T05:15:14;16.67;;;11.13;;
8891;SDS011;4482;54.332;10.118;2022-11-04T05:17:41;7.67;;;6.73;;
8891;SDS011;4482;54.332;10.118;2022-11-04T05:20:08;7.93;;;6.13;;
8891;SDS011;4482;54.332;10.118;2022-11-04T05:22:37;9.67;;;6.70;;
8891;SDS011;4482;54.332;10.118;2022-11-04T05:25:04;12.30;;;6.87;;
8891;SDS011;4482;54.332;10.118;2022-11-04T05:27:31;9.57;;;7.13;;
8891;SDS011;4482;54.332;10.118;2022-11-04T05:29:58;8.00;;;6.57;;
8891;SDS011;4482;54.332;10.118;2022-11-04T05:32:27;9.97;;;7.27;;
8891;SDS011;4482;54.332;10.118;2022-11-04T05:34:54;8.20;;;7.40;;
8891;SDS011;4482;54.332;10.118;2022-11-04T05:37:21;11.30;;;6.33;;
8891;SDS011;4482;54.332;10.118;2022-11-04T05:39:49;11.60;;;8.30;;
8891;SDS011;4482;54.332;10.118;2022-11-04T05:42:16;19.83;;;14.63;;
8891;SDS011;4482;54.332;10.118;2022-11-04T05:44:43;27.73;;;16.50;;
8891;SDS011;4482;54.332;10.118;2022-11-04T05:47:10;14.57;;;7.50;;
8891;SDS011;4482;54.332;10.118;2022-11-04T05:49:37;9.57;;;7.03;;
8891;SDS011;4482;54.332;10.118;2022-11-04T05:52:04;7.43;;;5.83;;
8891;SDS011;4482;54.332;10.118;2022-11-04T05:54:31;6.70;;;6.00;;
8891;SDS011;4482;54.332;10.118;2022-11-04T05:56:59;8.60;;;6.07;;
8891;SDS011;4482;54.332;10.118;2022-11-04T05:59:26;7.37;;;6.63;;
8891;SDS011;4482;54.332;10.118;2022-11-04T06:01:53;5.70;;;5.30;;
8891;SDS011;4482;54.332;10.118;2022-11-04T06:04:19;5.87;;;5.37;;
8891;SDS011;4482;54.332;10.118;2022-11-04T06:06:46;5.73;;;5.13;;
8891;SDS011;4482;54.332;10.118;2022-11-04T06:09:13;7.47;;;5.50;;
8891;SDS011;4482;54.332;10.118;2022-11-04T06:11:40;5.60;;;5.10;;
8891;SDS011;4482;54.332;10.118;2022-11-04T06:14:09;5.93;;;4.77;;
8891;SDS011;4482;54.332;10.118;2022-11-04T06:16:36;8.27;;;5.60;;
8891;SDS011;4482;54.332;10.118;2022-11-04T06:19:02;6.20;;;4.40;;
8891;SDS011;4482;54.332;10.118;2022-11-04T06:21:30;4.93;;;4.53;;
8891;SDS011;4482;54.332;10.118;2022-11-04T06:23:58;5.30;;;4.80;;
8891;SDS011;4482;54.332;10.118;2022-11-04T06:26:26;6.30;;;4.20;;
8891;SDS011;4482;54.332;10.118;2022-11-04T06:28:55;4.03;;;3.73;;
8891;SDS011;4482;54.332;10.118;2022-11-04T06:31:23;4.47;;;3.80;;
8891;SDS011;4482;54.332;10.118;2022-11-04T06:33:50;3.93;;;3.63;;
8891;SDS011;4482;54.332;10.118;2022-11-04T06:36:17;3.83;;;3.53;;
8891;SDS011;4482;54.332;10.118;2022-11-04T06:38:44;4.47;;;3.37;;
8891;SDS011;4482;54.332;10.118;2022-11-04T06:41:11;3.07;;;2.87;;
8891;SDS011;4482;54.332;10.118;2022-11-04T06:43:39;2.73;;;2.53;;
8891;SDS011;4482;54.332;10.118;2022-11-04T06:46:20;7.33;;;5.73;;
8891;SDS011;4482;54.332;10.118;2022-11-04T06:48:51;9.10;;;5.90;;
8891;SDS011;4482;54.332;10.118;2022-11-04T06:51:18;2.53;;;2.20;;
8891;SDS011;4482;54.332;10.118;2022-11-04T06:53:44;2.10;;;1.73;;
8891;SDS011;4482;54.332;10.118;2022-11-04T06:56:11;3.43;;;2.83;;
8891;SDS011;4482;54.332;10.118;2022-11-04T06:58:38;2.97;;;2.00;;
8891;SDS011;4482;54.332;10.118;2022-11-04T07:01:05;2.03;;;1.93;;
8891;SDS011;4482;54.332;10.118;2022-11-04T07:03:33;1.87;;;1.77;;
8891;SDS011;4482;54.332;10.118;2022-11-04T07:06:04;1.43;;;1.30;;
8891;SDS011;4482;54.332;10.118;2022-11-04T07:08:32;2.10;;;1.53;;
8891;SDS011;4482;54.332;10.118;2022-11-04T07:10:59;1.30;;;1.30;;
8891;SDS011;4482;54.332;10.118;2022-11-04T07:13:25;1.67;;;1.57;;
8891;SDS011;4482;54.332;10.118;2022-11-04T07:15:52;1.67;;;1.57;;
8891;SDS011;4482;54.332;10.118;2022-11-04T07:18:19;1.43;;;1.20;;
8891;SDS011;4482;54.332;10.118;2022-11-04T07:20:47;2.37;;;1.97;;
8891;SDS011;4482;54.332;10.118;2022-11-04T07:23:14;1.47;;;1.43;;
8891;SDS011;4482;54.332;10.118;2022-11-04T07:25:41;1.37;;;1.30;;
8891;SDS011;4482;54.332;10.118;2022-11-04T07:28:08;1.40;;;1.30;;
8891;SDS011;4482;54.332;10.118;2022-11-04T07:30:35;1.63;;;1.53;;
8891;SDS011;4482;54.332;10.118;2022-11-04T07:33:02;1.70;;;1.60;;
8891;SDS011;4482;54.332;10.118;2022-11-04T07:35:29;2.60;;;0.93;;
8891;SDS011;4482;54.332;10.118;2022-11-04T07:37:57;1.10;;;1.10;;
8891;SDS011;4482;54.332;10.118;2022-11-04T07:40:25;1.27;;;1.20;;
8891;SDS011;4482;54.332;10.118;2022-11-04T07:42:52;1.23;;;1.13;;
8891;SDS011;4482;54.332;10.118;2022-11-04T07:45:19;1.30;;;1.20;;
8891;SDS011;4482;54.332;10.118;2022-11-04T07:47:46;1.10;;;1.10;;
8891;SDS011;4482;54.332;10.118;2022-11-04T07:50:13;1.23;;;1.20;;
8891;SDS011;4482;54.332;10.118;2022-11-04T07:52:40;2.77;;;1.23;;
8891;SDS011;4482;54.332;10.118;2022-11-04T07:55:08;2.13;;;1.40;;
8891;SDS011;4482;54.332;10.118;2022-11-04T07:57:38;3.13;;;1.23;;
8891;SDS011;4482;54.332;10.118;2022-11-04T08:00:05;0.90;;;0.90;;
8891;SDS011;4482;54.332;10.118;2022-11-04T08:02:33;3.07;;;1.40;;
8891;SDS011;4482;54.332;10.118;2022-11-04T08:05:00;1.50;;;1.40;;
8891;SDS011;4482;54.332;10.118;2022-11-04T08:07:27;1.07;;;1.07;;
8891;SDS011;4482;54.332;10.118;2022-11-04T08:09:54;1.40;;;1.30;;
8891;SDS011;4482;54.332;10.118;2022-11-04T08:12:22;1.43;;;1.37;;
8891;SDS011;4482;54.332;10.118;2022-11-04T08:14:51;1.20;;;1.10;;
8891;SDS011;4482;54.332;10.118;2022-11-04T08:17:18;2.67;;;1.10;;
8891;SDS011;4482;54.332;10.118;2022-11-04T08:19:45;1.70;;;0.80;;
8891;SDS011;4482;54.332;10.118;2022-11-04T08:22:12;1.13;;;1.13;;
8891;SDS011;4482;54.332;10.118;2022-11-04T08:24:39;1.60;;;1.50;;
8891;SDS011;4482;54.332;10.118;2022-11-04T08:27:05;1.40;;;1.10;;
8891;SDS011;4482;54.332;10.118;2022-11-04T08:29:35;5.87;;;1.67;;
8891;SDS011;4482;54.332;10.118;2022-11-04T08:32:02;6.07;;;2.03;;
8891;SDS011;4482;54.332;10.118;2022-11-04T08:34:29;2.57;;;1.23;;
8891;SDS011;4482;54.332;10.118;2022-11-04T08:36:56;1.13;;;1.13;;
8891;SDS011;4482;54.332;10.118;2022-11-04T08:39:24;3.03;;;1.50;;
8891;SDS011;4482;54.332;10.118;2022-11-04T08:41:51;3.07;;;1.70;;
8891;SDS011;4482;54.332;10.118;2022-11-04T08:44:19;1.50;;;1.17;;
8891;SDS011;4482;54.332;10.118;2022-11-04T08:46:47;1.63;;;1.10;;
8891;SDS011;4482;54.332;10.118;2022-11-04T08:49:14;2.13;;;1.00;;
8891;SDS011;4482;54.332;10.118;2022-11-04T08:51:42;1.53;;;1.33;;
8891;SDS011;4482;54.332;10.118;2022-11-04T08:54:11;3.47;;;1.00;;
8891;SDS011;4482;54.332;10.118;2022-11-04T08:56:38;1.37;;;1.23;;
8891;SDS011;4482;54.332;10.118;2022-11-04T08:59:05;1.87;;;1.77;;
8891;SDS011;4482;54.332;10.118;2022-11-04T09:01:33;3.53;;;1.27;;
8891;SDS011;4482;54.332;10.118;2022-11-04T09:04:03;1.20;;;1.20;;
8891;SDS011;4482;54.332;10.118;2022-11-04T09:06:31;3.33;;;1.33;;
8891;SDS011;4482;54.332;10.118;2022-11-04T09:08:59;1.00;;;1.00;;
8891;SDS011;4482;54.332;10.118;2022-11-04T09:11:28;2.73;;;1.47;;
8891;SDS011;4482;54.332;10.118;2022-11-04T09:13:57;4.80;;;1.40;;
8891;SDS011;4482;54.332;10.118;2022-11-04T09:16:26;4.60;;;1.50;;
8891;SDS011;4482;54.332;10.118;2022-11-04T09:18:54;1.70;;;1.40;;
8891;SDS011;4482;54.332;10.118;2022-11-04T09:21:23;1.37;;;1.17;;
8891;SDS011;4482;54.332;10.118;2022-11-04T09:23:51;1.40;;;1.40;;
8891;SDS011;4482;54.332;10.118;2022-11-04T09:26:19;3.20;;;1.20;;
8891;SDS011;4482;54.332;10.118;2022-11-04T09:28:47;2.23;;;1.60;;
8891;SDS011;4482;54.332;10.118;2022-11-04T09:31:18;2.17;;;1.60;;
8891;SDS011;4482;54.332;10.118;2022-11-04T09:33:45;2.00;;;1.90;;
8891;SDS011;4482;54.332;10.118;2022-11-04T09:36:12;1.43;;;1.33;;
8891;SDS011;4482;54.332;10.118;2022-11-04T09:38:41;2.70;;;1.97;;
8891;SDS011;4482;54.332;10.118;2022-11-04T09:41:11;3.17;;;1.67;;
8891;SDS011;4482;54.332;10.118;2022-11-04T09:43:57;1.70;;;1.60;;
8891;SDS011;4482;54.332;10.118;2022-11-04T09:46:29;1.70;;;1.60;;
8891;SDS011;4482;54.332;10.118;2022-11-04T09:48:59;1.70;;;1.40;;
8891;SDS011;4482;54.332;10.118;2022-11-04T09:51:28;1.80;;;1.43;;
8891;SDS011;4482;54.332;10.118;2022-11-04T09:53:57;1.90;;;1.13;;
8891;SDS011;4482;54.332;10.118;2022-11-04T09:56:29;2.40;;;1.30;;
8891;SDS011;4482;54.332;10.118;2022-11-04T09:59:00;4.10;;;1.37;;
8891;SDS011;4482;54.332;10.118;2022-11-04T10:01:30;1.60;;;1.30;;
8891;SDS011;4482;54.332;10.118;2022-11-04T10:04:14;2.03;;;1.10;;
8891;SDS011;4482;54.332;10.118;2022-11-04T10:06:53;3.40;;;1.07;;
8891;SDS011;4482;54.332;10.118;2022-11-04T10:09:38;1.50;;;1.23;;
8891;SDS011;4482;54.332;10.118;2022-11-04T10:12:17;2.00;;;1.17;;
8891;SDS011;4482;54.332;10.118;2022-11-04T10:14:55;1.37;;;1.30;;
8891;SDS011;4482;54.332;10.118;2022-11-04T10:17:47;1.67;;;1.03;;
8891;SDS011;4482;54.332;10.118;2022-11-04T10:20:27;1.40;;;1.30;;
8891;SDS011;4482;54.332;10.118;2022-11-04T10:23:12;3.73;;;1.10;;
8891;SDS011;4482;54.332;10.118;2022-11-04T10:25:48;7.90;;;1.27;;
8891;SDS011;4482;54.332;10.118;2022-11-04T10:28:22;0.93;;;0.93;;
8891;SDS011;4482;54.332;10.118;2022-11-04T10:30:55;3.00;;;1.07;;
8891;SDS011;4482;54.332;10.118;2022-11-04T10:33:24;1.27;;;1.23;;
8891;SDS011;4482;54.332;10.118;2022-11-04T10:35:56;2.80;;;1.23;;
8891;SDS011;4482;54.332;10.118;2022-11-04T10:38:30;1.07;;;0.90;;
8891;SDS011;4482;54.332;10.118;2022-11-04T10:41:01;2.73;;;1.30;;
8891;SDS011;4482;54.332;10.118;2022-11-04T10:43:37;7.10;;;1.33;;
8891;SDS011;4482;54.332;10.118;2022-11-04T10:46:11;1.60;;;1.10;;
8891;SDS011;4482;54.332;10.118;2022-11-04T10:48:47;3.67;;;1.50;;
8891;SDS011;4482;54.332;10.118;2022-11-04T10:51:17;1.23;;;1.10;;
8891;SDS011;4482;54.332;10.118;2022-11-04T10:53:46;2.87;;;1.10;;
8891;SDS011;4482;54.332;10.118;2022-11-04T10:56:17;2.10;;;1.07;;
8891;SDS011;4482;54.332;10.118;2022-11-04T10:58:50;1.27;;;0.80;;
8891;SDS011;4482;54.332;10.118;2022-11-04T11:01:24;1.03;;;0.93;;
8891;SDS011;4482;54.332;10.118;2022-11-04T11:03:52;2.43;;;1.77;;
8891;SDS011;4482;54.332;10.118;2022-11-04T11:06:23;2.70;;;1.10;;
8891;SDS011;4482;54.332;10.118;2022-11-04T11:08:53;1.27;;;1.27;;
8891;SDS011;4482;54.332;10.118;2022-11-04T11:11:36;2.83;;;1.33;;
8891;SDS011;4482;54.332;10.118;2022-11-04T11:14:16;0.97;;;0.87;;
8891;SDS011;4482;54.332;10.118;2022-11-04T11:16:45;1.23;;;1.13;;
8891;SDS011;4482;54.332;10.118;2022-11-04T11:19:14;2.20;;;1.10;;
8891;SDS011;4482;54.332;10.118;2022-11-04T11:21:44;3.33;;;1.40;;
8891;SDS011;4482;54.332;10.118;2022-11-04T11:24:14;3.60;;;1.27;;
8891;SDS011;4482;54.332;10.118;2022-11-04T11:26:46;2.60;;;1.27;;
8891;SDS011;4482;54.332;10.118;2022-11-04T11:29:17;3.37;;;1.20;;
8891;SDS011;4482;54.332;10.118;2022-11-04T11:31:48;2.97;;;1.40;;
8891;SDS011;4482;54.332;10.118;2022-11-04T11:34:18;5.17;;;1.50;;
8891;SDS011;4482;54.332;10.118;2022-11-04T11:36:50;0.87;;;0.87;;
8891;SDS011;4482;54.332;10.118;2022-11-04T11:39:18;3.90;;;1.47;;
8891;SDS011;4482;54.332;10.118;2022-11-04T11:41:51;2.00;;;1.37;;
8891;SDS011;4482;54.332;10.118;2022-11-04T11:44:23;2.27;;;1.03;;
8891;SDS011;4482;54.332;10.118;2022-11-04T11:46:53;0.83;;;0.83;;
8891;SDS011;4482;54.332;10.118;2022-11-04T11:49:24;7.93;;;1.50;;
8891;SDS011;4482;54.332;10.118;2022-11-04T11:51:54;1.43;;;0.93;;
8891;SDS011;4482;54.332;10.118;2022-11-04T11:54:25;4.17;;;1.20;;
8891;SDS011;4482;54.332;10.118;2022-11-04T11:57:00;3.43;;;1.17;;
8891;SDS011;4482;54.332;10.118;2022-11-04T11:59:36;2.30;;;1.17;;
8891;SDS011;4482;54.332;10.118;2022-11-04T12:02:14;2.30;;;1.30;;
8891;SDS011;4482;54.332;10.118;2022-11-04T12:04:50;3.60;;;1.40;;
8891;SDS011;4482;54.332;10.118;2022-11-04T12:07:20;3.07;;;1.47;;
8891;SDS011;4482;54.332;10.118;2022-11-04T12:09:56;4.33;;;1.20;;
8891;SDS011;4482;54.332;10.118;2022-11-04T12:12:32;3.80;;;1.07;;
8891;SDS011;4482;54.332;10.118;2022-11-04T12:15:11;2.80;;;1.17;;
8891;SDS011;4482;54.332;10.118;2022-11-04T12:18:00;2.00;;;1.00;;
8891;SDS011;4482;54.332;10.118;2022-11-04T12:20:37;1.73;;;1.10;;
8891;SDS011;4482;54.332;10.118;2022-11-04T12:23:14;1.30;;;1.10;;
8891;SDS011;4482;54.332;10.118;2022-11-04T12:25:50;7.97;;;1.50;;
8891;SDS011;4482;54.332;10.118;2022-11-04T12:28:28;2.33;;;1.03;;
8891;SDS011;4482;54.332;10.118;2022-11-04T12:31:05;3.93;;;1.07;;
8891;SDS011;4482;54.332;10.118;2022-11-04T12:33:39;6.70;;;1.70;;
8891;SDS011;4482;54.332;10.118;2022-11-04T12:36:16;3.77;;;1.47;;
8891;SDS011;4482;54.332;10.118;2022-11-04T12:39:00;2.13;;;1.17;;
8891;SDS011;4482;54.332;10.118;2022-11-04T12:41:39;4.43;;;1.23;;
8891;SDS011;4482;54.332;10.118;2022-11-04T12:44:17;1.73;;;1.20;;
8891;SDS011;4482;54.332;10.118;2022-11-04T12:46:55;1.90;;;1.20;;
8891;SDS011;4482;54.332;10.118;2022-11-04T12:49:40;1.63;;;1.17;;
8891;SDS011;4482;54.332;10.118;2022-11-04T12:52:21;4.00;;;1.20;;
8891;SDS011;4482;54.332;10.118;2022-11-04T12:55:03;5.50;;;3.43;;
8891;SDS011;4482;54.332;10.118;2022-11-04T12:57:40;2.37;;;1.20;;
8891;SDS011;4482;54.332;10.118;2022-11-04T13:00:18;3.80;;;1.13;;
8891;SDS011;4482;54.332;10.118;2022-11-04T13:02:49;3.07;;;1.13;;
8891;SDS011;4482;54.332;10.118;2022-11-04T13:08:09;4.43;;;1.53;;
8891;SDS011;4482;54.332;10.118;2022-11-04T13:10:45;1.40;;;1.30;;
8891;SDS011;4482;54.332;10.118;2022-11-04T13:13:17;2.23;;;1.37;;
8891;SDS011;4482;54.332;10.118;2022-11-04T13:15:50;3.50;;;1.73;;
8891;SDS011;4482;54.332;10.118;2022-11-04T13:18:22;4.13;;;2.03;;
8891;SDS011;4482;54.332;10.118;2022-11-04T13:20:52;5.07;;;2.17;;
8891;SDS011;4482;54.332;10.118;2022-11-04T13:23:24;7.67;;;2.17;;
8891;SDS011;4482;54.332;10.118;2022-11-04T13:25:56;3.03;;;1.67;;
8891;SDS011;4482;54.332;10.118;2022-11-04T13:28:24;1.97;;;1.87;;
8891;SDS011;4482;54.332;10.118;2022-11-04T13:30:54;1.33;;;1.23;;
8891;SDS011;4482;54.332;10.118;2022-11-04T13:33:28;5.93;;;2.20;;
8891;SDS011;4482;54.332;10.118;2022-11-04T13:36:06;2.13;;;1.53;;
8891;SDS011;4482;54.332;10.118;2022-11-04T13:38:48;1.40;;;1.30;;
8891;SDS011;4482;54.332;10.118;2022-11-04T13:41:33;4.80;;;1.20;;
8891;SDS011;4482;54.332;10.118;2022-11-04T13:44:18;3.67;;;1.40;;
8891;SDS011;4482;54.332;10.118;2022-11-04T13:46:51;1.37;;;1.10;;
8891;SDS011;4482;54.332;10.118;2022-11-04T13:49:23;2.43;;;1.17;;
8891;SDS011;4482;54.332;10.118;2022-11-04T13:52:02;1.33;;;1.20;;
8891;SDS011;4482;54.332;10.118;2022-11-04T13:54:36;5.50;;;1.80;;
8891;SDS011;4482;54.332;10.118;2022-11-04T13:57:07;2.50;;;1.43;;
8891;SDS011;4482;54.332;10.118;2022-11-04T13:59:36;3.30;;;1.97;;
8891;SDS011;4482;54.332;10.118;2022-11-04T14:02:31;1.90;;;1.80;;
8891;SDS011;4482;54.332;10.118;2022-11-04T14:08:18;4.17;;;1.50;;
8891;SDS011;4482;54.332;10.118;2022-11-04T14:10:57;4.97;;;1.57;;
8891;SDS011;4482;54.332;10.118;2022-11-04T14:13:41;2.87;;;1.47;;
8891;SDS011;4482;54.332;10.118;2022-11-04T14:16:09;1.80;;;1.37;;
8891;SDS011;4482;54.332;10.118;2022-11-04T14:18:40;1.87;;;1.77;;
8891;SDS011;4482;54.332;10.118;2022-11-04T14:21:08;3.50;;;1.47;;
8891;SDS011;4482;54.332;10.118;2022-11-04T14:23:37;3.73;;;1.50;;
8891;SDS011;4482;54.332;10.118;2022-11-04T14:26:06;4.80;;;1.40;;
8891;SDS011;4482;54.332;10.118;2022-11-04T14:28:34;5.40;;;1.70;;
8891;SDS011;4482;54.332;10.118;2022-11-04T14:31:02;3.10;;;1.17;;
8891;SDS011;4482;54.332;10.118;2022-11-04T14:33:34;3.40;;;1.37;;
8891;SDS011;4482;54.332;10.118;2022-11-04T14:39:06;2.27;;;1.23;;
8891;SDS011;4482;54.332;10.118;2022-11-04T14:41:48;6.60;;;1.87;;
8891;SDS011;4482;54.332;10.118;2022-11-04T14:44:18;2.97;;;1.60;;
8891;SDS011;4482;54.332;10.118;2022-11-04T14:46:50;5.00;;;2.30;;
8891;SDS011;4482;54.332;10.118;2022-11-04T14:49:27;2.40;;;1.90;;
8891;SDS011;4482;54.332;10.118;2022-11-04T14:52:02;4.20;;;2.03;;
8891;SDS011;4482;54.332;10.118;2022-11-04T14:54:30;2.63;;;1.50;;
8891;SDS011;4482;54.332;10.118;2022-11-04T14:57:06;2.47;;;1.30;;
8891;SDS011;4482;54.332;10.118;2022-11-04T14:59:39;2.23;;;1.37;;
8891;SDS011;4482;54.332;10.118;2022-11-04T15:02:09;4.80;;;2.00;;
8891;SDS011;4482;54.332;10.118;2022-11-04T15:04:47;3.13;;;1.20;;
8891;SDS011;4482;54.332;10.118;2022-11-04T15:07:22;4.77;;;1.67;;
8891;SDS011;4482;54.332;10.118;2022-11-04T15:09:51;4.07;;;1.67;;
8891;SDS011;4482;54.332;10.118;2022-11-04T15:12:18;7.63;;;1.77;;
8891;SDS011;4482;54.332;10.118;2022-11-04T15:17:52;4.33;;;1.60;;
8891;SDS011;4482;54.332;10.118;2022-11-04T15:20:21;2.30;;;1.47;;
8891;SDS011;4482;54.332;10.118;2022-11-04T15:22:50;5.10;;;1.90;;
8891;SDS011;4482;54.332;10.118;2022-11-04T15:25:19;9.97;;;2.13;;
8891;SDS011;4482;54.332;10.118;2022-11-04T15:27:46;2.33;;;1.57;;
8891;SDS011;4482;54.332;10.118;2022-11-04T15:30:18;7.57;;;2.70;;
8891;SDS011;4482;54.332;10.118;2022-11-04T15:32:53;3.97;;;2.23;;
8891;SDS011;4482;54.332;10.118;2022-11-04T15:35:22;2.93;;;1.70;;
8891;SDS011;4482;54.332;10.118;2022-11-04T15:37:50;4.00;;;1.60;;
8891;SDS011;4482;54.332;10.118;2022-11-04T15:40:18;4.87;;;1.63;;
8891;SDS011;4482;54.332;10.118;2022-11-04T15:42:46;3.43;;;1.33;;
8891;SDS011;4482;54.332;10.118;2022-11-04T15:45:18;3.27;;;1.40;;
8891;SDS011;4482;54.332;10.118;2022-11-04T15:50:53;2.80;;;1.20;;